Time;durP1;ratioP1;P1;durP2;ratioP2;P2;SDS_P1;SDS_P2;PMS_P1;PMS_P2;Temp;Humidity;BMP_temperature;BMP_pressure;BME280_temperature;BME280_humidity;BME280_pressure;Samples;Min_cycle;Max_cycle;Signal;HPM_P1;HPM_P2
2023/08/03 00:00:27;;;;;;;5.15;2.60;;;;;;;14.90;nan;98966.50;5062721;28;20017;-78
2023/08/03 00:02:53;;;;;;;10.48;3.22;;;;;;;14.94;nan;98969.72;5064819;28;20036;-79
2023/08/03 00:05:19;;;;;;;6.45;2.20;;;;;;;14.95;nan;98980.13;5061750;28;20495;-80
2023/08/03 00:07:46;;;;;;;5.50;2.45;;;;;;;14.94;nan;98982.84;5062637;28;20046;-79
2023/08/03 00:10:11;;;;;;;5.95;3.38;;;;;;;14.93;nan;98973.31;5060616;28;20120;-80
2023/08/03 00:12:36;;;;;;;6.70;2.90;;;;;;;14.87;nan;98976.38;5062876;28;20116;-80
2023/08/03 00:15:02;;;;;;;8.65;3.58;;;;;;;14.95;nan;98977.50;5056676;28;20099;-80
2023/08/03 00:17:28;;;;;;;9.43;4.50;;;;;;;14.92;nan;98979.50;5060671;28;20078;-80
2023/08/03 00:19:53;;;;;;;9.25;5.20;;;;;;;14.95;nan;98984.53;5067459;28;20029;-81
2023/08/03 00:22:18;;;;;;;10.10;6.20;;;;;;;14.91;nan;98990.94;5054813;28;20387;-80
2023/08/03 00:24:43;;;;;;;19.73;6.57;;;;;;;14.96;nan;99000.16;5058769;28;20056;-80
2023/08/03 00:27:09;;;;;;;20.48;7.90;;;;;;;14.95;nan;98995.88;5061223;28;20033;-80
2023/08/03 00:29:34;;;;;;;16.50;7.35;;;;;;;14.99;nan;99007.00;5063964;28;20472;-79
2023/08/03 00:32:00;;;;;;;22.25;8.20;;;;;;;15.01;nan;99006.88;5045968;28;20056;-80
2023/08/03 00:34:26;;;;;;;15.50;8.57;;;;;;;15.03;nan;99011.06;5051685;28;20079;-80
2023/08/03 00:36:51;;;;;;;20.17;9.10;;;;;;;15.03;nan;99018.94;5060091;28;20029;-80
2023/08/03 00:39:17;;;;;;;21.25;9.80;;;;;;;15.06;nan;99021.34;5052853;28;20024;-80
2023/08/03 00:41:42;;;;;;;38.13;10.90;;;;;;;15.08;nan;99040.47;5058384;28;20024;-78
2023/08/03 00:44:07;;;;;;;54.45;12.00;;;;;;;15.01;nan;99033.97;5060250;28;20078;-79
2023/08/03 00:46:33;;;;;;;46.00;11.85;;;;;;;15.01;nan;99035.72;5063144;28;20036;-78
2023/08/03 00:48:58;;;;;;;30.60;11.32;;;;;;;15.03;nan;99037.31;5056930;28;20464;-79
2023/08/03 00:51:24;;;;;;;27.60;10.98;;;;;;;15.08;nan;99037.00;5062633;28;20054;-78
2023/08/03 00:53:49;;;;;;;30.33;11.40;;;;;;;15.06;nan;99055.47;5062270;28;20032;-79
2023/08/03 00:56:14;;;;;;;25.88;12.52;;;;;;;15.09;nan;99054.41;5056875;28;20025;-78
2023/08/03 00:58:40;;;;;;;24.92;12.10;;;;;;;15.07;nan;99053.66;5062748;28;20024;-79
2023/08/03 01:01:06;;;;;;;29.95;12.52;;;;;;;15.03;nan;99065.34;5060987;28;20518;-79
2023/08/03 01:03:31;;;;;;;29.27;12.32;;;;;;;15.05;nan;99060.84;5061132;28;20056;-80
2023/08/03 01:05:57;;;;;;;28.52;12.13;;;;;;;15.06;nan;99071.22;5055329;28;20480;-79
2023/08/03 01:08:23;;;;;;;30.42;13.15;;;;;;;15.09;nan;99075.41;5059632;28;20032;-81
2023/08/03 01:10:49;;;;;;;35.58;13.95;;;;;;;15.08;nan;99074.56;5068420;28;20032;-81
2023/08/03 01:13:14;;;;;;;33.20;14.48;;;;;;;15.09;nan;99070.16;5063668;28;20041;-80
2023/08/03 01:15:39;;;;;;;34.15;14.07;;;;;;;15.13;nan;99075.06;5067585;28;20498;-80
2023/08/03 01:18:05;;;;;;;28.60;14.15;;;;;;;15.10;nan;99088.41;5064390;28;20037;-81
2023/08/03 01:20:32;;;;;;;32.58;14.85;;;;;;;15.09;nan;99093.78;5061122;28;20031;-80
2023/08/03 01:22:57;;;;;;;30.08;14.15;;;;;;;15.07;nan;99099.13;5064318;28;20103;-81
2023/08/03 01:25:23;;;;;;;25.25;13.82;;;;;;;15.10;nan;99104.16;5066060;28;20147;-82
2023/08/03 01:27:49;;;;;;;26.92;13.35;;;;;;;15.10;nan;99113.81;5068682;28;20379;-81
2023/08/03 01:30:15;;;;;;;27.15;12.63;;;;;;;15.10;nan;99114.66;5068786;28;20025;-82
2023/08/03 01:32:40;;;;;;;26.38;13.85;;;;;;;15.13;nan;99111.00;5056266;28;20056;-81
2023/08/03 01:35:07;;;;;;;25.40;12.55;;;;;;;15.09;nan;99115.63;5066502;28;20463;-81
2023/08/03 01:37:35;;;;;;;29.67;12.15;;;;;;;15.02;nan;99119.63;5065047;28;20033;-81
2023/08/03 01:40:03;;;;;;;29.55;12.38;;;;;;;15.11;nan;99128.66;5064106;28;20076;-80
2023/08/03 01:42:28;;;;;;;26.63;11.57;;;;;;;15.08;nan;99120.97;5061274;28;20158;-80
2023/08/03 01:44:53;;;;;;;24.30;10.73;;;;;;;15.11;nan;99134.72;5061045;28;20041;-81
2023/08/03 01:47:19;;;;;;;28.02;11.30;;;;;;;15.08;nan;99134.94;5064895;28;20150;-82
2023/08/03 01:49:44;;;;;;;26.80;11.45;;;;;;;15.08;nan;99131.47;5065855;28;20027;-81
2023/08/03 01:52:09;;;;;;;26.58;10.45;;;;;;;15.04;nan;99125.59;5061968;28;20483;-81
2023/08/03 01:54:35;;;;;;;25.55;9.10;;;;;;;15.06;nan;99131.56;5065166;28;20081;-80
2023/08/03 01:57:00;;;;;;;18.92;8.77;;;;;;;15.07;nan;99138.50;5059838;28;20470;-80
2023/08/03 01:59:25;;;;;;;30.70;7.95;;;;;;;15.04;nan;99119.50;5064848;28;20024;-81
2023/08/03 02:01:50;;;;;;;22.83;7.38;;;;;;;15.05;nan;99129.91;5065991;28;20024;-81
2023/08/03 02:04:16;;;;;;;17.45;6.60;;;;;;;15.07;nan;99140.28;5062127;28;20025;-80
2023/08/03 02:06:46;;;;;;;17.38;7.15;;;;;;;15.04;nan;99135.25;5061160;28;20425;-80
2023/08/03 02:09:11;;;;;;;14.70;7.63;;;;;;;15.05;nan;99143.03;5064248;28;20032;-81
2023/08/03 02:11:36;;;;;;;20.40;8.35;;;;;;;15.05;nan;99143.03;5050385;28;20028;-81
2023/08/03 02:14:02;;;;;;;26.10;9.48;;;;;;;15.02;nan;99137.16;5065652;28;20036;-82
2023/08/03 02:16:28;;;;;;;29.40;10.15;;;;;;;15.06;nan;99134.19;5062051;28;20029;-82
2023/08/03 02:18:53;;;;;;;29.42;10.70;;;;;;;15.03;nan;99134.41;5068797;28;20082;-80
2023/08/03 02:21:18;;;;;;;33.63;9.98;;;;;;;15.01;nan;99120.56;5060715;28;20029;-82
2023/08/03 02:23:44;;;;;;;30.50;10.73;;;;;;;15.02;nan;99122.25;5064642;28;20070;-81
2023/08/03 02:26:09;;;;;;;29.50;10.57;;;;;;;15.01;nan;99119.69;5056751;28;20021;-82
2023/08/03 02:28:35;;;;;;;36.80;12.35;;;;;;;15.00;nan;99124.13;5061234;28;20170;-81
2023/08/03 02:31:00;;;;;;;40.22;11.15;;;;;;;14.98;nan;99136.53;5061488;28;20060;-81
2023/08/03 02:33:25;;;;;;;30.83;10.20;;;;;;;14.99;nan;99135.56;5066227;28;20269;-82
2023/08/03 02:35:51;;;;;;;30.70;11.18;;;;;;;14.95;nan;99127.06;5068275;28;20044;-82
2023/08/03 02:38:16;;;;;;;35.88;10.52;;;;;;;14.99;nan;99131.16;5056276;28;20017;-81
2023/08/03 02:40:41;;;;;;;36.47;11.00;;;;;;;15.00;nan;99137.25;5050791;28;20086;-80
2023/08/03 02:43:07;;;;;;;37.90;10.88;;;;;;;14.98;nan;99139.97;5067250;28;20104;-82
2023/08/03 02:45:32;;;;;;;43.38;11.30;;;;;;;14.94;nan;99133.28;5056877;28;20020;-80
2023/08/03 02:47:57;;;;;;;41.67;11.48;;;;;;;14.96;nan;99138.41;5062725;28;20044;-81
2023/08/03 02:50:23;;;;;;;32.25;11.07;;;;;;;14.86;nan;99124.25;5063168;28;20036;-81
2023/08/03 02:52:49;;;;;;;30.52;11.38;;;;;;;14.90;nan;99123.91;5058024;28;20036;-81
2023/08/03 02:55:14;;;;;;;29.38;11.02;;;;;;;14.90;nan;99136.19;5060214;28;20381;-80
2023/08/03 02:57:40;;;;;;;41.50;11.57;;;;;;;14.86;nan;99124.25;5062383;28;20463;-81
2023/08/03 03:00:06;;;;;;;38.17;10.63;;;;;;;14.92;nan;99136.94;5052345;28;20037;-81
2023/08/03 03:02:31;;;;;;;41.95;11.40;;;;;;;14.86;nan;99132.09;5067124;28;20025;-81
2023/08/03 03:04:56;;;;;;;33.65;11.32;;;;;;;14.89;nan;99142.41;5059577;28;20040;-82
2023/08/03 03:07:22;;;;;;;34.50;10.73;;;;;;;14.91;nan;99156.22;5056238;28;20079;-81
2023/08/03 03:09:47;;;;;;;35.33;11.02;;;;;;;14.87;nan;99146.91;5060808;28;20452;-81
2023/08/03 03:12:12;;;;;;;39.15;10.80;;;;;;;14.86;nan;99155.72;5061563;28;20056;-81
2023/08/03 03:14:38;;;;;;;36.85;11.15;;;;;;;14.86;nan;99160.97;5065716;28;20032;-81
2023/08/03 03:17:03;;;;;;;40.70;11.10;;;;;;;14.87;nan;99162.63;5064066;28;20028;-81
2023/08/03 03:19:29;;;;;;;34.33;10.63;;;;;;;14.87;nan;99167.88;5061053;28;20464;-80
2023/08/03 03:21:55;;;;;;;33.45;10.98;;;;;;;14.85;nan;99164.53;5062203;28;20063;-79
2023/08/03 03:24:20;;;;;;;34.90;10.35;;;;;;;14.81;nan;99163.03;5060132;28;20177;-77
2023/08/03 03:26:45;;;;;;;36.75;10.68;;;;;;;14.80;nan;99161.38;5063156;28;20115;-79
2023/08/03 03:29:11;;;;;;;40.60;11.40;;;;;;;14.83;nan;99169.03;5066473;28;20495;-80
2023/08/03 03:31:36;;;;;;;36.00;9.95;;;;;;;14.81;nan;99177.00;5060140;28;20044;-80
2023/08/03 03:34:01;;;;;;;37.38;10.15;;;;;;;14.83;nan;99177.75;5067973;28;20048;-80
2023/08/03 03:36:27;;;;;;;32.20;10.20;;;;;;;14.84;nan;99186.44;5053509;28;20017;-82
2023/08/03 03:38:52;;;;;;;31.23;9.65;;;;;;;14.84;nan;99187.28;5068317;28;20020;-81
2023/08/03 03:41:17;;;;;;;28.63;9.45;;;;;;;14.82;nan;99180.50;5050214;28;20024;-81
2023/08/03 03:43:43;;;;;;;37.65;9.75;;;;;;;14.78;nan;99192.97;5066380;28;20028;-81
2023/08/03 03:46:08;;;;;;;30.08;9.48;;;;;;;14.81;nan;99192.75;5062520;28;20486;-82
2023/08/03 03:48:33;;;;;;;26.02;9.52;;;;;;;14.82;nan;99189.19;5065565;28;20056;-80
2023/08/03 03:50:59;;;;;;;32.45;9.43;;;;;;;14.80;nan;99203.34;5054755;28;20518;-82
2023/08/03 03:53:24;;;;;;;33.65;10.15;;;;;;;14.80;nan;99214.69;5066578;28;20470;-81
2023/08/03 03:55:49;;;;;;;25.40;8.05;;;;;;;14.75;nan;99209.75;5058539;28;20037;-80
2023/08/03 03:58:14;;;;;;;30.27;8.52;;;;;;;14.73;nan;99203.75;5069130;28;20024;-84
2023/08/03 04:00:40;;;;;;;23.92;8.90;;;;;;;14.74;nan;99215.91;5053264;28;20020;-85
2023/08/03 04:03:09;;;;;;;35.63;8.93;;;;;;;14.74;nan;99221.16;5067853;28;20048;-84
2023/08/03 04:05:35;;;;;;;31.48;9.00;;;;;;;14.72;nan;99225.69;5054379;28;20032;-83
2023/08/03 04:08:01;;;;;;;28.85;8.70;;;;;;;14.78;nan;99213.09;5066495;28;20020;-84
2023/08/03 04:10:27;;;;;;;18.77;9.32;;;;;;;14.76;nan;99242.06;5060666;28;20082;-83
2023/08/03 04:12:52;;;;;;;27.27;8.68;;;;;;;14.77;nan;99242.91;5064137;28;20025;-83
2023/08/03 04:15:18;;;;;;;19.45;8.85;;;;;;;14.77;nan;99245.53;5058562;28;20033;-84
2023/08/03 04:17:45;;;;;;;23.75;8.38;;;;;;;14.78;nan;99248.06;5056691;28;20032;-84
2023/08/03 04:20:11;;;;;;;28.48;9.43;;;;;;;14.79;nan;99243.66;5062131;28;20020;-82
2023/08/03 04:22:37;;;;;;;23.85;8.02;;;;;;;14.80;nan;99248.78;5055090;28;20083;-83
2023/08/03 04:25:03;;;;;;;29.65;9.25;;;;;;;14.81;nan;99249.63;5057386;28;20121;-82
2023/08/03 04:27:28;;;;;;;23.10;9.50;;;;;;;14.74;nan;99239.53;5060677;28;20379;-82
2023/08/03 04:29:54;;;;;;;27.10;9.40;;;;;;;14.76;nan;99255.19;5060140;28;20067;-81
2023/08/03 04:32:19;;;;;;;28.98;8.32;;;;;;;14.77;nan;99264.72;5059852;28;20048;-81
2023/08/03 04:34:44;;;;;;;28.80;9.00;;;;;;;14.83;nan;99280.06;5054054;28;20029;-79
2023/08/03 04:37:09;;;;;;;24.15;7.95;;;;;;;14.85;nan;99277.34;5062064;28;20055;-78
2023/08/03 04:39:35;;;;;;;21.35;7.68;;;;;;;14.81;nan;99287.19;5066128;28;20028;-79
2023/08/03 04:42:00;;;;;;;23.38;8.13;;;;;;;14.78;nan;99289.16;5061899;28;20484;-79
2023/08/03 04:44:25;;;;;;;16.77;7.63;;;;;;;14.79;nan;99294.34;5062541;28;20032;-80
2023/08/03 04:46:51;;;;;;;19.35;7.57;;;;;;;14.83;nan;99308.09;5050384;28;20032;-79
2023/08/03 04:49:16;;;;;;;23.35;9.23;;;;;;;14.84;nan;99296.63;5061634;28;20103;-79
2023/08/03 04:51:41;;;;;;;23.95;8.45;;;;;;;14.82;nan;99295.91;5059340;28;20118;-81
2023/08/03 04:54:08;;;;;;;14.90;7.57;;;;;;;14.85;nan;99314.94;5064404;28;20150;-80
2023/08/03 04:56:33;;;;;;;12.85;6.40;;;;;;;14.86;nan;99305.25;5060329;28;20048;-81
2023/08/03 04:58:58;;;;;;;13.02;6.65;;;;;;;14.83;nan;99308.09;5061741;28;20114;-83
2023/08/03 05:01:23;;;;;;;15.80;7.95;;;;;;;14.78;nan;99303.16;5062313;28;20036;-81
2023/08/03 05:03:49;;;;;;;11.40;7.07;;;;;;;14.84;nan;99317.63;5056440;28;20534;-83
2023/08/03 05:06:14;;;;;;;15.57;6.47;;;;;;;14.81;nan;99323.91;5060318;28;20482;-83
2023/08/03 05:08:39;;;;;;;15.00;6.88;;;;;;;14.87;nan;99322.69;5066324;28;20029;-84
2023/08/03 05:11:05;;;;;;;13.02;6.25;;;;;;;14.81;nan;99320.44;5059911;28;20036;-84
2023/08/03 05:13:30;;;;;;;13.85;5.65;;;;;;;14.88;nan;99338.34;5058508;28;20508;-82
2023/08/03 05:15:55;;;;;;;15.93;5.80;;;;;;;14.90;nan;99333.81;5062291;28;20052;-83
2023/08/03 05:18:21;;;;;;;15.63;5.45;;;;;;;14.91;nan;99343.38;5067297;28;20464;-82
2023/08/03 05:20:46;;;;;;;15.43;5.35;;;;;;;14.97;nan;99350.84;5059399;28;20464;-82
2023/08/03 05:23:12;;;;;;;14.95;5.07;;;;;;;14.95;nan;99346.66;5065467;28;20032;-84
2023/08/03 05:25:38;;;;;;;12.52;5.03;;;;;;;14.99;nan;99356.00;5063643;28;20032;-82
2023/08/03 05:28:03;;;;;;;7.35;4.78;;;;;;;14.95;nan;99355.34;5059255;28;20070;-83
2023/08/03 05:30:29;;;;;;;16.35;4.90;;;;;;;14.94;nan;99355.44;5052550;28;20025;-83
2023/08/03 05:32:54;;;;;;;13.32;5.50;;;;;;;14.96;nan;99369.31;5059709;28;20072;-82
2023/08/03 05:35:19;;;;;;;13.80;5.53;;;;;;;15.00;nan;99368.16;5062323;28;20419;-82
2023/08/03 05:37:45;;;;;;;15.90;5.82;;;;;;;15.02;nan;99368.91;5058150;28;20102;-82
2023/08/03 05:40:11;;;;;;;23.35;6.78;;;;;;;15.09;nan;99366.75;5056119;28;20029;-82
2023/08/03 05:42:38;;;;;;;17.15;5.78;;;;;;;15.10;nan;99392.88;5056364;28;20037;-81
2023/08/03 05:45:32;;;;;;;19.38;5.80;;;;;;;15.11;nan;99383.25;5059877;28;20025;-81
2023/08/03 05:47:58;;;;;;;19.38;5.45;;;;;;;15.11;nan;99394.56;5066927;28;20067;-82
2023/08/03 05:50:24;;;;;;;16.35;4.97;;;;;;;15.16;nan;99394.25;5058428;28;20029;-82
2023/08/03 05:52:50;;;;;;;14.23;4.68;;;;;;;15.14;nan;99407.50;5045785;28;20108;-81
2023/08/03 05:55:16;;;;;;;17.52;4.68;;;;;;;15.17;nan;99390.69;5057018;28;20765;-82
2023/08/03 05:57:42;;;;;;;11.32;4.15;;;;;;;15.15;nan;99405.72;5064279;28;20029;-83
2023/08/03 06:00:17;;;;;;;14.15;4.60;;;;;;;15.18;nan;99419.47;5058044;28;20021;-83
2023/08/03 06:02:43;;;;;;;15.20;4.30;;;;;;;15.20;nan;99419.38;5052713;28;20028;-82
2023/08/03 06:05:32;;;;;;;12.65;4.30;;;;;;;15.18;nan;99423.88;5043366;28;20407;-84
2023/08/03 06:07:57;;;;;;;12.73;4.05;;;;;;;15.20;nan;99414.97;5041436;28;20025;-82
2023/08/03 06:10:23;;;;;;;13.27;3.88;;;;;;;15.23;nan;99424.41;5040133;28;20100;-82
2023/08/03 06:12:48;;;;;;;12.35;4.07;;;;;;;15.17;nan;99435.31;5043463;28;20389;-81
2023/08/03 06:15:16;;;;;;;12.52;4.20;;;;;;;15.16;nan;99431.84;5042541;28;20068;-82
2023/08/03 06:17:42;;;;;;;13.45;3.90;;;;;;;15.17;nan;99430.06;5047719;28;20077;-82
2023/08/03 06:20:13;;;;;;;17.58;3.85;;;;;;;15.21;nan;99448.16;5047300;28;20040;-83
2023/08/03 06:22:39;;;;;;;13.68;4.13;;;;;;;15.20;nan;99443.84;5052548;28;20044;-81
2023/08/03 06:25:10;;;;;;;19.42;4.05;;;;;;;15.19;nan;99444.78;5046999;28;20037;-82
2023/08/03 06:27:39;;;;;;;14.20;3.78;;;;;;;15.22;nan;99444.59;5049705;28;20111;-83
2023/08/03 06:30:05;;;;;;;13.40;4.07;;;;;;;15.27;nan;99446.94;5050296;28;20034;-75
2023/08/03 06:32:32;;;;;;;13.35;4.03;;;;;;;15.28;nan;99453.84;5061403;28;20099;-76
2023/08/03 06:34:59;;;;;;;20.10;4.90;;;;;;;15.26;nan;99453.09;5066436;28;20028;-76
2023/08/03 06:37:27;;;;;;;15.32;5.28;;;;;;;15.14;nan;99465.25;5063078;28;20495;-75
2023/08/03 06:39:53;;;;;;;12.85;4.47;;;;;;;15.13;nan;99458.28;5060638;28;20543;-75
2023/08/03 06:42:18;;;;;;;10.65;4.22;;;;;;;15.07;nan;99469.19;5054566;28;20111;-75
2023/08/03 06:44:44;;;;;;;13.98;4.78;;;;;;;15.04;nan;99476.41;5058604;28;20032;-75
2023/08/03 06:47:09;;;;;;;14.10;4.45;;;;;;;15.11;nan;99485.59;5066334;28;20029;-76
2023/08/03 06:49:35;;;;;;;15.18;4.55;;;;;;;15.17;nan;99478.19;5058374;28;20028;-82
2023/08/03 06:52:00;;;;;;;14.90;4.53;;;;;;;15.20;nan;99482.38;5054691;28;20650;-85
2023/08/03 06:54:25;;;;;;;18.25;4.15;;;;;;;15.20;nan;99480.63;5062516;28;20028;-83
2023/08/03 06:56:51;;;;;;;9.93;4.00;;;;;;;15.28;nan;99495.84;5068278;28;20025;-82
2023/08/03 06:59:21;;;;;;;14.95;3.85;;;;;;;15.29;nan;99510.66;5060181;28;20702;-81
2023/08/03 07:01:47;;;;;;;12.45;4.35;;;;;;;15.31;nan;99505.34;5048106;28;20026;-83
2023/08/03 07:04:13;;;;;;;9.43;3.40;;;;;;;15.33;nan;99511.31;5059546;28;21482;-81
2023/08/03 07:06:38;;;;;;;12.45;3.33;;;;;;;15.20;nan;99525.25;5048720;28;20032;-81
2023/08/03 07:09:03;;;;;;;9.70;3.50;;;;;;;15.25;nan;99527.56;5056050;28;20032;-80
2023/08/03 07:11:30;;;;;;;15.73;3.70;;;;;;;15.31;nan;99531.59;5055060;28;20029;-81
2023/08/03 07:13:56;;;;;;;14.10;3.67;;;;;;;15.34;nan;99526.13;5058781;28;20055;-82
2023/08/03 07:16:22;;;;;;;9.15;3.58;;;;;;;15.33;nan;99534.94;5061115;28;20032;-81
2023/08/03 07:18:48;;;;;;;11.60;3.50;;;;;;;15.26;nan;99545.00;5054102;28;20025;-81
2023/08/03 07:21:13;;;;;;;10.35;3.95;;;;;;;15.27;nan;99538.81;5056926;28;20035;-82
2023/08/03 07:23:38;;;;;;;11.85;3.70;;;;;;;15.36;nan;99545.25;5053034;28;20020;-81
2023/08/03 07:26:12;;;;;;;7.50;3.88;;;;;;;15.42;nan;99543.06;5057495;28;20540;-81
2023/08/03 07:28:37;;;;;;;8.80;3.65;;;;;;;15.49;nan;99546.16;5056555;28;20079;-81
2023/08/03 07:31:03;;;;;;;8.13;3.42;;;;;;;15.42;nan;99555.38;5055383;28;20017;-82
2023/08/03 07:33:28;;;;;;;8.23;3.38;;;;;;;15.50;nan;99547.84;5048026;28;20057;-82
2023/08/03 07:35:54;;;;;;;8.63;3.40;;;;;;;15.62;nan;99562.78;5056531;28;20036;-80
2023/08/03 07:38:19;;;;;;;12.52;3.50;;;;;;;15.66;nan;99561.72;5039887;28;20036;-80
2023/08/03 07:40:44;;;;;;;11.13;2.58;;;;;;;15.81;nan;99561.66;5049211;28;20111;-81
2023/08/03 07:43:10;;;;;;;11.90;3.08;;;;;;;15.87;nan;99562.09;5067409;28;20025;-82
2023/08/03 07:45:38;;;;;;;9.32;2.92;;;;;;;16.01;nan;99574.31;5054363;28;20025;-80
2023/08/03 07:48:04;;;;;;;8.75;2.97;;;;;;;15.94;nan;99573.03;5060869;28;20096;-81
2023/08/03 07:50:29;;;;;;;8.52;2.53;;;;;;;15.95;nan;99563.38;5053025;28;20037;-80
2023/08/03 07:52:54;;;;;;;9.05;3.30;;;;;;;15.96;nan;99576.41;5053266;28;20036;-80
2023/08/03 07:55:20;;;;;;;12.95;2.80;;;;;;;16.00;nan;99571.81;5052976;28;20079;-78
2023/08/03 07:57:45;;;;;;;10.20;2.47;;;;;;;15.86;nan;99572.72;5057129;28;20028;-80
2023/08/03 08:00:11;;;;;;;13.30;2.53;;;;;;;15.81;nan;99588.75;5061097;28;20484;-80
2023/08/03 08:02:36;;;;;;;15.50;3.20;;;;;;;15.78;nan;99588.13;5056996;28;20498;-79
2023/08/03 08:05:01;;;;;;;14.68;2.40;;;;;;;15.75;nan;99598.81;5053123;28;20631;-79
2023/08/03 08:07:28;;;;;;;13.85;2.90;;;;;;;15.76;nan;99606.63;5058517;28;20559;-79
2023/08/03 08:09:53;;;;;;;13.25;2.53;;;;;;;15.78;nan;99615.22;5066256;28;20024;-79
2023/08/03 08:13:12;;;;;;;11.63;3.10;;;;;;;15.75;nan;99617.22;5060467;28;20345;-80
2023/08/03 08:15:38;;;;;;;14.88;2.67;;;;;;;15.70;nan;99622.78;5061052;28;20050;-82
2023/08/03 08:18:04;;;;;;;8.63;2.50;;;;;;;15.62;nan;99625.00;5060059;28;20451;-80
2023/08/03 08:20:29;;;;;;;6.95;2.47;;;;;;;15.63;nan;99631.94;5062382;28;20111;-80
2023/08/03 08:22:54;;;;;;;12.50;2.78;;;;;;;15.55;nan;99640.31;5061356;28;20034;-79
2023/08/03 08:25:20;;;;;;;9.55;2.75;;;;;;;15.61;nan;99639.09;5061985;28;20112;-79
2023/08/03 08:27:45;;;;;;;11.35;2.95;;;;;;;15.52;nan;99637.03;5051453;28;20099;-80
2023/08/03 08:30:10;;;;;;;10.60;2.40;;;;;;;15.54;nan;99653.56;5055041;28;20052;-78
2023/08/03 08:32:37;;;;;;;11.07;2.75;;;;;;;15.58;nan;99653.25;5055944;28;20052;-80
2023/08/03 08:35:03;;;;;;;15.35;2.45;;;;;;;15.56;nan;99668.25;5053594;28;20503;-80
2023/08/03 08:37:29;;;;;;;10.60;3.10;;;;;;;15.52;nan;99665.94;5051674;28;20033;-80
2023/08/03 08:39:55;;;;;;;7.80;2.80;;;;;;;15.57;nan;99653.38;5053455;28;20030;-81
2023/08/03 08:42:20;;;;;;;8.93;2.50;;;;;;;15.74;nan;99679.44;5052760;28;20025;-81
2023/08/03 08:44:45;;;;;;;8.95;2.38;;;;;;;15.97;nan;99680.59;5059776;28;20538;-83
2023/08/03 08:47:10;;;;;;;10.75;2.65;;;;;;;16.04;nan;99688.94;5061587;28;20040;-82
2023/08/03 08:49:36;;;;;;;6.05;1.90;;;;;;;16.02;nan;99696.06;5057496;28;20120;-80
2023/08/03 08:52:02;;;;;;;6.05;1.98;;;;;;;15.93;nan;99692.25;5058108;28;20769;-82
2023/08/03 08:54:34;;;;;;;6.35;1.90;;;;;;;15.95;nan;99698.25;5051499;28;20024;-79
2023/08/03 08:56:59;;;;;;;5.47;1.65;;;;;;;16.08;nan;99711.44;5054925;28;20107;-78
2023/08/03 08:59:27;;;;;;;7.32;1.90;;;;;;;16.06;nan;99708.94;5059152;28;20104;-78
2023/08/03 09:01:53;;;;;;;4.80;1.38;;;;;;;16.00;nan;99711.13;5054669;28;20033;-79
2023/08/03 09:04:32;;;;;;;5.68;1.52;;;;;;;15.86;nan;99723.34;5057311;28;20386;-81
2023/08/03 09:06:57;;;;;;;6.32;1.60;;;;;;;15.72;nan;99722.50;5058921;28;20040;-79
2023/08/03 09:09:28;;;;;;;3.65;1.10;;;;;;;15.60;nan;99727.56;5050845;28;20025;-73
2023/08/03 09:11:55;;;;;;;4.40;1.58;;;;;;;15.58;nan;99724.19;5046655;28;20032;-80
2023/08/03 09:14:21;;;;;;;4.45;1.50;;;;;;;15.70;nan;99742.81;5047622;28;20063;-80
2023/08/03 09:16:46;;;;;;;4.03;1.80;;;;;;;15.79;nan;99737.78;5056447;28;20020;-79
2023/08/03 09:19:12;;;;;;;3.45;1.70;;;;;;;15.91;nan;99744.06;5058975;28;20403;-79
2023/08/03 09:21:37;;;;;;;6.57;1.80;;;;;;;15.92;nan;99743.13;5058843;28;20054;-79
2023/08/03 09:24:17;;;;;;;5.60;1.95;;;;;;;15.87;nan;99760.97;5051442;28;20025;-79
2023/08/03 09:26:42;;;;;;;6.65;1.77;;;;;;;15.83;nan;99773.47;5056231;28;20035;-81
2023/08/03 09:29:15;;;;;;;4.95;1.83;;;;;;;15.85;nan;99773.38;5051374;28;20013;-80
2023/08/03 09:31:41;;;;;;;4.25;2.15;;;;;;;15.85;nan;99781.25;5063693;28;20036;-81
2023/08/03 09:34:06;;;;;;;6.65;2.22;;;;;;;15.73;nan;99768.84;5060709;28;20087;-81
2023/08/03 09:36:31;;;;;;;6.03;2.38;;;;;;;15.89;nan;99786.25;5054605;28;20082;-82
2023/08/03 09:39:18;;;;;;;9.93;2.85;;;;;;;16.06;nan;99803.56;5056480;28;20033;-82
2023/08/03 09:41:43;;;;;;;7.97;3.13;;;;;;;16.17;nan;99799.44;5062620;28;20021;-79
2023/08/03 09:44:09;;;;;;;13.68;3.60;;;;;;;16.13;nan;99804.03;5060418;28;20082;-79
2023/08/03 09:46:35;;;;;;;12.95;3.40;;;;;;;16.13;nan;99815.41;5055665;28;20064;-84
2023/08/03 09:49:00;;;;;;;13.00;4.00;;;;;;;16.38;nan;99816.47;5066296;28;20033;-78
2023/08/03 09:51:29;;;;;;;10.32;3.45;;;;;;;16.61;nan;99822.88;5059011;28;20418;-81
2023/08/03 09:54:22;;;;;;;10.25;3.60;;;;;;;16.56;nan;99833.72;5057894;28;20028;-80
2023/08/03 09:56:52;;;;;;;9.73;3.03;;;;;;;16.37;nan;99834.03;5063655;28;20036;-80
2023/08/03 09:59:23;;;;;;;9.98;3.60;;;;;;;16.38;nan;99841.00;5062136;28;20086;-80
2023/08/03 10:01:50;;;;;;;11.18;3.10;;;;;;;16.43;nan;99847.75;5057002;28;20124;-81
2023/08/03 10:04:19;;;;;;;13.90;3.38;;;;;;;16.51;nan;99846.31;5054520;28;20460;-82
2023/08/03 10:06:48;;;;;;;9.48;3.20;;;;;;;16.53;nan;99847.06;5056986;28;20040;-80
2023/08/03 10:09:59;;;;;;;9.15;3.28;;;;;;;16.56;nan;99838.97;5058418;28;20414;-79
2023/08/03 10:14:52;;;;;;;10.85;2.95;;;;;;;16.96;nan;99852.19;5197385;22;20068;-80
2023/08/03 10:17:18;;;;;;;6.97;2.70;;;;;;;17.07;nan;99868.16;5015154;28;20033;-80
2023/08/03 10:19:45;;;;;;;7.85;3.47;;;;;;;17.30;nan;99871.91;5009633;28;20069;-78
2023/08/03 10:22:11;;;;;;;5.90;2.53;;;;;;;17.51;nan;99874.03;5013052;28;20135;-79
2023/08/03 10:24:36;;;;;;;6.13;2.72;;;;;;;17.71;nan;99870.88;5025673;28;20474;-79
2023/08/03 10:27:18;;;;;;;6.30;2.17;;;;;;;17.57;nan;99878.06;5012021;28;20465;-79
2023/08/03 10:29:50;;;;;;;5.85;2.50;;;;;;;17.64;nan;99874.03;5016052;28;20532;-78
2023/08/03 10:32:21;;;;;;;5.45;2.08;;;;;;;17.77;nan;99877.56;5011531;28;20374;-79
2023/08/03 10:34:47;;;;;;;8.15;2.28;;;;;;;17.82;nan;99882.50;5007229;28;20030;-76
2023/08/03 10:37:12;;;;;;;5.70;2.08;;;;;;;17.93;nan;99888.75;5013845;28;20060;-76
2023/08/03 10:39:47;;;;;;;5.90;2.15;;;;;;;18.02;nan;99893.38;5016121;28;20131;-76
2023/08/03 10:42:20;;;;;;;4.70;2.10;;;;;;;18.17;nan;99886.16;5008755;28;20048;-78
2023/08/03 10:44:45;;;;;;;6.60;2.45;;;;;;;18.41;nan;99888.91;5013818;28;20124;-77
2023/08/03 10:47:22;;;;;;;4.80;2.20;;;;;;;18.70;nan;99893.84;5012210;28;20109;-76
2023/08/03 10:49:49;;;;;;;6.70;2.55;;;;;;;18.95;nan;99893.78;5020432;28;20083;-77
2023/08/03 10:52:20;;;;;;;5.38;2.17;;;;;;;19.26;nan;99901.25;5014988;28;20026;-78
2023/08/03 10:54:46;;;;;;;6.30;2.38;;;;;;;19.38;nan;99903.81;5017134;28;20056;-77
2023/08/03 10:57:14;;;;;;;7.88;2.45;;;;;;;19.36;nan;99911.03;5018708;28;20084;-77
2023/08/03 10:59:45;;;;;;;6.20;2.42;;;;;;;19.39;nan;99915.22;5017604;28;20026;-77
2023/08/03 11:02:21;;;;;;;7.45;2.55;;;;;;;19.53;nan;99915.06;5014566;28;20034;-76
2023/08/03 11:04:47;;;;;;;8.30;2.42;;;;;;;19.17;nan;99926.56;5019137;28;20029;-77
2023/08/03 11:07:16;;;;;;;6.22;2.25;;;;;;;18.64;nan;99936.56;5014201;28;20087;-77
2023/08/03 11:09:44;;;;;;;6.07;2.20;;;;;;;18.55;nan;99929.28;5015332;28;20392;-77
2023/08/03 11:12:10;;;;;;;9.20;2.97;;;;;;;18.83;nan;99939.56;5017684;28;20097;-77
2023/08/03 11:14:36;;;;;;;8.63;3.08;;;;;;;18.96;nan;99950.09;5020311;28;20120;-76
2023/08/03 11:17:02;;;;;;;6.03;2.30;;;;;;;18.70;nan;99944.00;5017580;28;20495;-76
2023/08/03 11:19:33;;;;;;;7.93;2.40;;;;;;;18.38;nan;99949.81;5011458;28;20026;-77
2023/08/03 11:22:01;;;;;;;6.97;2.65;;;;;;;17.93;nan;99949.38;5012400;28;20068;-78
2023/08/03 11:24:31;;;;;;;8.18;3.17;;;;;;;17.64;nan;99946.03;5007443;28;20029;-79
2023/08/03 11:26:57;;;;;;;6.90;3.05;;;;;;;17.35;nan;99953.25;5013119;28;20706;-79
2023/08/03 11:29:23;;;;;;;8.38;2.85;;;;;;;17.25;nan;99958.28;5023087;28;20035;-78
2023/08/03 11:31:49;;;;;;;13.27;3.80;;;;;;;17.14;nan;99946.75;5012708;28;20125;-78
2023/08/03 11:34:14;;;;;;;11.82;4.05;;;;;;;17.13;nan;99963.47;5016216;28;20088;-79
2023/08/03 11:36:47;;;;;;;12.10;4.40;;;;;;;17.37;nan;99969.81;5013347;28;20030;-79
2023/08/03 11:39:12;;;;;;;13.80;5.30;;;;;;;17.61;nan;99977.88;5016792;28;20037;-79
2023/08/03 11:41:38;;;;;;;9.32;4.43;;;;;;;17.64;nan;99979.47;5020499;28;20364;-79